Time;durP1;ratioP1;P1;durP2;ratioP2;P2;SDS_P1;SDS_P2;PMS_P1;PMS_P2;Temp;Humidity;BMP_temperature;BMP_pressure;BME280_temperature;BME280_humidity;BME280_pressure;Samples;Min_cycle;Max_cycle;Signal;HPM_P1;HPM_P2
2022/12/14 00:00:06;;;;;;;;;;;-2.40;99.90;;;;;;5090576;28;19959;-55
2022/12/14 00:02:39;;;;;;;;;;;-2.40;99.90;;;;;;5091125;28;19985;-55
2022/12/14 00:05:06;;;;;;;;;;;-2.40;99.90;;;;;;5095152;28;19924;-55
2022/12/14 00:07:33;;;;;;;;;;;-2.40;99.90;;;;;;5092979;28;20034;-55
2022/12/14 00:09:59;;;;;;;;;;;-2.40;99.90;;;;;;5095357;28;20022;-55
2022/12/14 00:12:28;;;;;;;;;;;-2.40;99.90;;;;;;5095845;28;20030;-55
2022/12/14 00:14:54;;;;;;;;;;;-2.40;99.90;;;;;;5090454;28;19966;-55
2022/12/14 00:17:22;;;;;;;;;;;-2.40;99.90;;;;;;5092550;28;19934;-55
2022/12/14 00:19:49;;;;;;;;;;;-2.40;99.90;;;;;;5091176;28;19940;-57
2022/12/14 00:22:15;;;;;;;;;;;-2.40;99.90;;;;;;5097363;28;19931;-55
2022/12/14 00:24:42;;;;;;;;;;;-2.40;99.90;;;;;;5071178;28;19924;-55
2022/12/14 00:27:09;;;;;;;;;;;-2.40;99.90;;;;;;5087941;28;20011;-55
2022/12/14 00:29:37;;;;;;;;;;;-2.40;99.90;;;;;;5077046;28;20021;-55
2022/12/14 00:32:04;;;;;;;;;;;-2.40;99.90;;;;;;5089349;28;19932;-55
2022/12/14 00:34:31;;;;;;;;;;;-2.40;99.90;;;;;;5091923;28;19924;-55
2022/12/14 00:36:58;;;;;;;;;;;-2.40;99.90;;;;;;5093389;28;19930;-55
2022/12/14 00:39:25;;;;;;;;;;;-2.40;99.90;;;;;;5092165;28;19935;-55
2022/12/14 00:41:51;;;;;;;;;;;-2.40;99.90;;;;;;5091772;28;19924;-56
2022/12/14 00:44:18;;;;;;;;;;;-2.40;99.90;;;;;;5095483;28;19924;-56
2022/12/14 00:46:46;;;;;;;;;;;-2.40;99.90;;;;;;5092783;28;20595;-55
2022/12/14 00:49:13;;;;;;;;;;;-2.40;99.90;;;;;;5082691;28;20028;-56
2022/12/14 00:51:40;;;;;;;;;;;-2.40;99.90;;;;;;5073354;28;19924;-55
2022/12/14 00:54:06;;;;;;;;;;;-2.40;99.90;;;;;;5094211;28;20302;-55
2022/12/14 00:56:33;;;;;;;;;;;-2.40;99.90;;;;;;5093746;28;19931;-55
2022/12/14 00:59:00;;;;;;;;;;;-2.40;99.90;;;;;;5088736;28;20003;-55
2022/12/14 01:01:29;;;;;;;;;;;-2.40;99.90;;;;;;5093702;28;19928;-55
2022/12/14 01:04:15;;;;;;;;;;;-2.40;99.90;;;;;;5095654;28;19931;-55
2022/12/14 01:06:42;;;;;;;;;;;-2.40;99.90;;;;;;5090332;28;20022;-56
2022/12/14 01:09:09;;;;;;;;;;;-2.30;99.90;;;;;;5087499;28;19924;-55
2022/12/14 01:11:36;;;;;;;;;;;-2.40;99.90;;;;;;5090888;28;19936;-55
2022/12/14 01:14:03;;;;;;;;;;;-2.40;99.90;;;;;;5101844;28;19932;-55
2022/12/14 01:16:30;;;;;;;;;;;-2.40;99.90;;;;;;5075046;28;20023;-55
2022/12/14 01:18:58;;;;;;;;;;;-2.40;99.90;;;;;;5084892;28;20424;-55
2022/12/14 01:21:25;;;;;;;;;;;-2.40;99.90;;;;;;5087364;28;19933;-56
2022/12/14 01:23:53;;;;;;;;;;;-2.30;99.90;;;;;;5097549;28;20314;-55
2022/12/14 01:26:20;;;;;;;;;;;-2.30;99.90;;;;;;5084626;28;19955;-55
2022/12/14 01:28:50;;;;;;;;;;;-2.30;99.90;;;;;;5092412;28;19932;-55
2022/12/14 01:31:18;;;;;;;;;;;-2.30;99.90;;;;;;5090003;28;19928;-55
2022/12/14 01:33:45;;;;;;;;;;;-2.30;99.90;;;;;;5087089;28;19932;-55
2022/12/14 01:36:14;;;;;;;;;;;-2.40;99.90;;;;;;5088161;28;19924;-55
2022/12/14 01:38:41;;;;;;;;;;;-2.30;99.90;;;;;;5069063;28;20034;-55
2022/12/14 01:41:09;;;;;;;;;;;-2.30;99.90;;;;;;5089462;28;19969;-56
2022/12/14 01:43:48;;;;;;;;;;;-2.30;99.90;;;;;;5089109;28;19924;-53
2022/12/14 01:46:17;;;;;;;;;;;-2.30;99.90;;;;;;5091591;28;19970;-53
2022/12/14 01:48:45;;;;;;;;;;;-2.30;99.90;;;;;;5097641;28;19946;-53
2022/12/14 01:51:13;;;;;;;;;;;-2.30;99.90;;;;;;5092456;28;20339;-53
2022/12/14 01:53:42;;;;;;;;;;;-2.30;99.90;;;;;;5089808;28;20587;-53
2022/12/14 01:56:09;;;;;;;;;;;-2.30;99.90;;;;;;5088639;28;20069;-53
2022/12/14 01:58:36;;;;;;;;;;;-2.30;99.90;;;;;;5086252;28;19946;-52
2022/12/14 02:01:03;;;;;;;;;;;-2.30;99.90;;;;;;5089203;28;19931;-53
2022/12/14 02:03:31;;;;;;;;;;;-2.30;99.90;;;;;;5093537;28;19931;-52
2022/12/14 02:06:01;;;;;;;;;;;-2.30;99.90;;;;;;5091369;28;19924;-53
2022/12/14 02:08:30;;;;;;;;;;;-2.30;99.90;;;;;;5095612;28;20006;-52
2022/12/14 02:10:57;;;;;;;;;;;-2.30;99.90;;;;;;5090924;28;20555;-52
2022/12/14 02:13:25;;;;;;;;;;;-2.30;99.90;;;;;;5092397;28;19931;-52
2022/12/14 02:15:52;;;;;;;;;;;-2.30;99.90;;;;;;5078784;28;19924;-52
2022/12/14 02:18:20;;;;;;;;;;;-2.30;99.90;;;;;;5070631;28;20285;-53
2022/12/14 02:20:51;;;;;;;;;;;-2.30;99.90;;;;;;5085739;28;20023;-53
2022/12/14 02:23:41;;;;;;;;;;;-2.30;99.90;;;;;;5070566;28;20443;-53
2022/12/14 02:26:29;;;;;;;;;;;-2.30;99.90;;;;;;5087406;28;19924;-53
2022/12/14 02:29:16;;;;;;;;;;;-2.30;99.90;;;;;;5096698;28;19932;-53
2022/12/14 02:31:49;;;;;;;;;;;-2.30;99.90;;;;;;5090341;28;19931;-53
2022/12/14 02:34:21;;;;;;;;;;;-2.30;99.90;;;;;;5090892;28;20025;-53
2022/12/14 02:36:52;;;;;;;;;;;-2.30;99.90;;;;;;5093811;28;20100;-52
2022/12/14 02:39:23;;;;;;;;;;;-2.30;99.90;;;;;;5097455;28;19969;-52
2022/12/14 02:41:54;;;;;;;;;;;-2.30;99.90;;;;;;5090749;28;21303;-53
2022/12/14 02:44:26;;;;;;;;;;;-2.30;99.90;;;;;;5088441;28;19924;-53
2022/12/14 02:46:57;;;;;;;;;;;-2.20;99.90;;;;;;5087559;28;19959;-52
2022/12/14 02:49:34;;;;;;;;;;;-2.30;99.90;;;;;;5086188;28;20013;-53
2022/12/14 02:52:04;;;;;;;;;;;-2.30;99.90;;;;;;5087184;28;19930;-52
2022/12/14 02:54:35;;;;;;;;;;;-2.30;99.90;;;;;;5087623;28;19931;-52
2022/12/14 02:57:10;;;;;;;;;;;-2.30;99.90;;;;;;5093474;28;19986;-53
2022/12/14 02:59:37;;;;;;;;;;;-2.30;99.90;;;;;;5089890;28;19923;-53
2022/12/14 03:02:05;;;;;;;;;;;-2.20;99.90;;;;;;5090884;28;20413;-53
2022/12/14 03:04:32;;;;;;;;;;;-2.20;99.90;;;;;;5087675;28;19924;-53
2022/12/14 03:07:02;;;;;;;;;;;-2.20;99.90;;;;;;5087078;28;19924;-52
2022/12/14 03:09:30;;;;;;;;;;;-2.20;99.90;;;;;;5087082;28;19928;-53
2022/12/14 03:11:59;;;;;;;;;;;-2.20;99.90;;;;;;5091739;28;20010;-53
2022/12/14 03:14:27;;;;;;;;;;;-2.30;99.90;;;;;;5086341;28;20383;-53
2022/12/14 03:16:57;;;;;;;;;;;-2.20;99.90;;;;;;5089362;28;19979;-53
2022/12/14 03:19:27;;;;;;;;;;;-2.20;99.90;;;;;;5097763;28;19977;-52
2022/12/14 03:21:55;;;;;;;;;;;-2.30;99.90;;;;;;5087434;28;20015;-53
2022/12/14 03:24:23;;;;;;;;;;;-2.20;99.90;;;;;;5086218;28;19934;-53
2022/12/14 03:26:53;;;;;;;;;;;-2.30;99.90;;;;;;5090383;28;19925;-53
2022/12/14 03:29:21;;;;;;;;;;;-2.30;99.90;;;;;;5091759;28;19928;-53
2022/12/14 03:31:49;;;;;;;;;;;-2.30;99.90;;;;;;5087776;28;19924;-53
2022/12/14 03:34:17;;;;;;;;;;;-2.20;99.90;;;;;;5090721;28;19971;-53
2022/12/14 03:36:48;;;;;;;;;;;-2.30;99.90;;;;;;5098853;28;19924;-53
2022/12/14 03:39:18;;;;;;;;;;;-2.20;99.90;;;;;;5094941;28;19985;-53
2022/12/14 03:41:49;;;;;;;;;;;-2.20;99.90;;;;;;5088787;28;19924;-53
2022/12/14 03:44:22;;;;;;;;;;;-2.20;99.90;;;;;;5091774;28;20006;-53
2022/12/14 03:46:52;;;;;;;;;;;-2.20;99.90;;;;;;5090913;28;19932;-51
2022/12/14 03:49:21;;;;;;;;;;;-2.20;99.90;;;;;;5092681;28;20833;-52
2022/12/14 03:51:54;;;;;;;;;;;-2.20;99.90;;;;;;5095763;28;19931;-52
2022/12/14 03:54:23;;;;;;;;;;;-2.20;99.90;;;;;;5087572;28;19956;-52
2022/12/14 03:56:52;;;;;;;;;;;-2.20;99.90;;;;;;5087401;28;20455;-52
2022/12/14 03:59:25;;;;;;;;;;;-2.20;99.90;;;;;;5094273;28;20231;-52
2022/12/14 04:01:55;;;;;;;;;;;-2.20;99.90;;;;;;5093990;28;20337;-52
2022/12/14 04:04:27;;;;;;;;;;;-2.20;99.90;;;;;;5091249;28;20007;-53
2022/12/14 04:06:57;;;;;;;;;;;-2.20;99.90;;;;;;5096868;28;19966;-52
2022/12/14 04:09:29;;;;;;;;;;;-2.20;99.90;;;;;;5096393;28;20023;-53
2022/12/14 04:20:19;;;;;;;;;;;-2.20;99.90;;;;;;5090239;28;20557;-52
2022/12/14 04:22:49;;;;;;;;;;;-2.20;99.90;;;;;;5092625;28;19930;-51
2022/12/14 04:28:05;;;;;;;;;;;-2.20;99.90;;;;;;5089715;28;20145;-52
2022/12/14 04:30:32;;;;;;;;;;;-2.20;99.90;;;;;;5091078;28;20387;-52
2022/12/14 04:33:45;;;;;;;;;;;-2.20;99.90;;;;;;5071859;28;20390;-52
2022/12/14 04:35:49;;;;;;;;;;;-2.20;99.90;;;;;;5091296;28;19924;-52
2022/12/14 04:38:21;;;;;;;;;;;-2.20;99.90;;;;;;5087032;28;19924;-52
2022/12/14 04:40:49;;;;;;;;;;;-2.20;99.90;;;;;;5087955;28;19931;-53
2022/12/14 04:43:18;;;;;;;;;;;-2.10;99.90;;;;;;5094877;28;20418;-52
2022/12/14 04:45:47;;;;;;;;;;;-2.20;99.90;;;;;;5091063;28;19934;-52
2022/12/14 04:48:18;;;;;;;;;;;-2.10;99.90;;;;;;5087888;28;19931;-52
2022/12/14 04:50:46;;;;;;;;;;;-2.10;99.90;;;;;;5091123;28;19938;-52
2022/12/14 04:53:15;;;;;;;;;;;-2.10;99.90;;;;;;5092683;28;19930;-53
2022/12/14 04:55:46;;;;;;;;;;;-2.20;99.90;;;;;;5090228;28;19963;-53
2022/12/14 04:58:14;;;;;;;;;;;-2.20;99.90;;;;;;5088388;28;19932;-53
2022/12/14 05:00:47;;;;;;;;;;;-2.10;99.90;;;;;;5088261;28;19993;-53
2022/12/14 05:03:19;;;;;;;;;;;-2.10;99.90;;;;;;5089533;28;20445;-53
2022/12/14 05:05:52;;;;;;;;;;;-2.10;99.90;;;;;;5074657;28;20373;-52
2022/12/14 05:08:23;;;;;;;;;;;-2.10;99.90;;;;;;5092462;28;19956;-52
2022/12/14 05:10:52;;;;;;;;;;;-2.10;99.90;;;;;;5091150;28;19924;-52
2022/12/14 05:13:22;;;;;;;;;;;-2.10;99.90;;;;;;5092817;28;19995;-51
2022/12/14 05:15:50;;;;;;;;;;;-2.10;99.90;;;;;;5095619;28;19924;-53
2022/12/14 05:18:17;;;;;;;;;;;-2.10;99.90;;;;;;5089753;28;20548;-52
2022/12/14 05:20:45;;;;;;;;;;;-2.10;99.90;;;;;;5091017;28;19924;-52
2022/12/14 05:23:12;;;;;;;;;;;-2.10;99.90;;;;;;5072369;28;19932;-53
2022/12/14 05:25:39;;;;;;;;;;;-2.10;99.90;;;;;;5076720;28;19931;-52
2022/12/14 05:28:07;;;;;;;;;;;-2.20;99.90;;;;;;5073458;28;20557;-52
2022/12/14 05:30:34;;;;;;;;;;;-2.10;99.90;;;;;;5089774;28;20440;-53
2022/12/14 05:33:00;;;;;;;;;;;-2.10;99.90;;;;;;5085749;28;19924;-53
2022/12/14 05:35:27;;;;;;;;;;;-2.10;99.90;;;;;;5085616;28;20474;-52
2022/12/14 05:37:54;;;;;;;;;;;-2.10;99.90;;;;;;5094667;28;19932;-52
2022/12/14 05:40:21;;;;;;;;;;;-2.10;99.90;;;;;;5085823;28;20450;-52
2022/12/14 05:42:48;;;;;;;;;;;-2.10;99.90;;;;;;5090232;28;19924;-53
2022/12/14 05:45:16;;;;;;;;;;;-2.10;99.90;;;;;;5072729;28;19955;-53
2022/12/14 05:47:42;;;;;;;;;;;-2.10;99.90;;;;;;5092311;28;20275;-53
2022/12/14 05:50:09;;;;;;;;;;;-2.10;99.90;;;;;;5086854;28;20015;-52
2022/12/14 05:52:36;;;;;;;;;;;-2.10;99.90;;;;;;5085026;28;20386;-53
2022/12/14 05:55:03;;;;;;;;;;;-2.10;99.90;;;;;;5087438;28;19939;-53
2022/12/14 05:57:30;;;;;;;;;;;-2.10;99.90;;;;;;5084117;28;19933;-53
2022/12/14 05:59:57;;;;;;;;;;;-2.10;99.90;;;;;;5091124;28;20374;-53
2022/12/14 06:02:25;;;;;;;;;;;-2.10;99.90;;;;;;5084855;28;19939;-53
2022/12/14 06:04:52;;;;;;;;;;;-2.10;99.90;;;;;;5087805;28;19928;-52
2022/12/14 06:07:19;;;;;;;;;;;-2.10;99.90;;;;;;5083051;28;20017;-53
2022/12/14 06:09:46;;;;;;;;;;;-2.10;99.90;;;;;;5082600;28;19966;-52
2022/12/14 06:12:13;;;;;;;;;;;-2.10;99.90;;;;;;5078261;28;19977;-53
2022/12/14 06:14:39;;;;;;;;;;;-2.10;99.90;;;;;;5086346;28;19928;-53
2022/12/14 06:17:06;;;;;;;;;;;-2.20;99.90;;;;;;5072790;28;19932;-53
2022/12/14 06:19:34;;;;;;;;;;;-2.10;99.90;;;;;;5087627;28;20365;-52
2022/12/14 06:22:01;;;;;;;;;;;-2.10;99.90;;;;;;5089621;28;20397;-54
2022/12/14 06:24:28;;;;;;;;;;;-2.10;99.90;;;;;;5089534;28;20007;-53
2022/12/14 06:26:55;;;;;;;;;;;-2.10;99.90;;;;;;5093808;28;20040;-54
2022/12/14 06:29:22;;;;;;;;;;;-2.10;99.90;;;;;;5091836;28;19934;-54
2022/12/14 06:31:49;;;;;;;;;;;-2.10;99.90;;;;;;5095836;28;20446;-56
2022/12/14 06:34:16;;;;;;;;;;;-2.10;99.90;;;;;;5085680;28;19925;-54
2022/12/14 06:36:45;;;;;;;;;;;-2.10;99.90;;;;;;5087987;28;19957;-54
2022/12/14 06:39:13;;;;;;;;;;;-2.10;99.90;;;;;;5089376;28;19925;-54
2022/12/14 06:41:40;;;;;;;;;;;-2.10;99.90;;;;;;5085011;28;19986;-54
2022/12/14 06:44:07;;;;;;;;;;;-2.10;99.90;;;;;;5081576;28;19943;-54
2022/12/14 06:46:35;;;;;;;;;;;-2.10;99.90;;;;;;5089215;28;19950;-54
2022/12/14 06:49:02;;;;;;;;;;;-2.10;99.90;;;;;;5087267;28;19924;-54
2022/12/14 06:51:29;;;;;;;;;;;-2.10;99.90;;;;;;5071117;28;19931;-55
2022/12/14 06:53:57;;;;;;;;;;;-2.10;99.90;;;;;;5081268;28;21804;-54
2022/12/14 06:56:25;;;;;;;;;;;-2.10;99.90;;;;;;5080055;28;20018;-54
2022/12/14 06:58:53;;;;;;;;;;;-2.10;99.90;;;;;;5087907;28;20384;-54
2022/12/14 07:01:20;;;;;;;;;;;-2.10;99.90;;;;;;5087541;28;19932;-53
2022/12/14 07:03:47;;;;;;;;;;;-2.10;99.90;;;;;;5090122;28;19928;-58
2022/12/14 07:06:14;;;;;;;;;;;-2.10;99.90;;;;;;5082476;28;20616;-54
2022/12/14 07:08:41;;;;;;;;;;;-2.10;99.90;;;;;;5067502;28;19931;-54
2022/12/14 07:11:11;;;;;;;;;;;-2.10;99.90;;;;;;5079131;28;20021;-53
2022/12/14 07:13:38;;;;;;;;;;;-2.10;99.90;;;;;;5086623;28;19924;-53
2022/12/14 07:16:06;;;;;;;;;;;-2.10;99.90;;;;;;5089294;28;19970;-53
2022/12/14 07:18:33;;;;;;;;;;;-2.10;99.90;;;;;;5090189;28;20054;-57
2022/12/14 07:21:01;;;;;;;;;;;-2.00;99.90;;;;;;5089448;28;20292;-53
2022/12/14 07:23:28;;;;;;;;;;;-2.10;99.90;;;;;;5087405;28;19939;-53
2022/12/14 07:26:00;;;;;;;;;;;-2.00;99.90;;;;;;5085564;28;19985;-53
2022/12/14 07:28:28;;;;;;;;;;;-2.00;99.90;;;;;;5089603;28;19928;-53
2022/12/14 07:30:55;;;;;;;;;;;-2.10;99.90;;;;;;5084007;28;19932;-53
2022/12/14 07:33:22;;;;;;;;;;;-2.10;99.90;;;;;;5065745;28;19981;-53
2022/12/14 07:35:49;;;;;;;;;;;-2.00;99.90;;;;;;5085412;28;19935;-53
2022/12/14 07:38:16;;;;;;;;;;;-2.00;99.90;;;;;;5088878;28;19977;-53
2022/12/14 07:40:42;;;;;;;;;;;-2.00;99.90;;;;;;5084685;28;19930;-53
2022/12/14 07:43:09;;;;;;;;;;;-2.00;99.90;;;;;;5090171;28;20023;-52
2022/12/14 07:45:38;;;;;;;;;;;-2.00;99.90;;;;;;5091867;28;19981;-52
2022/12/14 07:48:06;;;;;;;;;;;-2.00;99.90;;;;;;5092446;28;19982;-52
2022/12/14 07:50:33;;;;;;;;;;;-2.00;99.90;;;;;;5092231;28;19924;-53
2022/12/14 07:52:59;;;;;;;;;;;-2.00;99.90;;;;;;5074790;28;19966;-53
2022/12/14 07:55:28;;;;;;;;;;;-2.00;99.90;;;;;;5087744;28;19924;-53
2022/12/14 07:57:55;;;;;;;;;;;-2.00;99.90;;;;;;5095939;28;19946;-53
2022/12/14 08:00:22;;;;;;;;;;;-2.00;99.90;;;;;;5072946;28;20035;-53
2022/12/14 08:02:50;;;;;;;;;;;-2.00;99.90;;;;;;5091035;28;19953;-52
2022/12/14 08:05:17;;;;;;;;;;;-2.00;99.90;;;;;;5095812;28;20009;-52
2022/12/14 08:07:44;;;;;;;;;;;-2.00;99.90;;;;;;5077937;28;19939;-52
2022/12/14 08:10:10;;;;;;;;;;;-2.00;99.90;;;;;;5097693;28;19952;-52
2022/12/14 08:12:37;;;;;;;;;;;-2.00;99.90;;;;;;5090478;28;19964;-53
2022/12/14 08:15:05;;;;;;;;;;;-2.00;99.90;;;;;;5092105;28;19932;-53
2022/12/14 08:17:32;;;;;;;;;;;-2.00;99.90;;;;;;5090614;28;20337;-53
2022/12/14 08:20:00;;;;;;;;;;;-2.00;99.90;;;;;;5092870;28;19955;-53
2022/12/14 08:22:26;;;;;;;;;;;-2.00;99.90;;;;;;5089474;28;19951;-53
2022/12/14 08:24:53;;;;;;;;;;;-2.00;99.90;;;;;;5078909;28;19932;-53
2022/12/14 08:27:20;;;;;;;;;;;-2.00;99.90;;;;;;5095372;28;19935;-54
2022/12/14 08:29:47;;;;;;;;;;;-2.00;99.90;;;;;;5091413;28;19928;-54
2022/12/14 08:32:13;;;;;;;;;;;-2.00;99.90;;;;;;5090864;28;20019;-53
2022/12/14 08:34:40;;;;;;;;;;;-1.90;99.90;;;;;;5073126;28;20323;-53
2022/12/14 08:37:09;;;;;;;;;;;-1.90;99.90;;;;;;5073747;28;19973;-53
2022/12/14 08:39:35;;;;;;;;;;;-1.90;99.90;;;;;;5088864;28;20056;-53
2022/12/14 08:42:02;;;;;;;;;;;-1.90;99.90;;;;;;5090757;28;19959;-53
2022/12/14 08:44:29;;;;;;;;;;;-1.90;99.90;;;;;;5092559;28;19931;-58
2022/12/14 08:46:56;;;;;;;;;;;-1.90;99.90;;;;;;5098868;28;19950;-55
2022/12/14 08:49:23;;;;;;;;;;;-1.90;99.90;;;;;;5094256;28;19928;-52
2022/12/14 08:51:49;;;;;;;;;;;-1.90;99.90;;;;;;5089112;28;20349;-53
2022/12/14 08:54:18;;;;;;;;;;;-1.90;99.90;;;;;;5091047;28;19930;-58
2022/12/14 08:56:45;;;;;;;;;;;-1.90;99.90;;;;;;5089615;28;21189;-54
2022/12/14 08:59:12;;;;;;;;;;;-1.90;99.90;;;;;;5068251;28;20458;-53
2022/12/14 09:01:39;;;;;;;;;;;-1.90;99.90;;;;;;5086489;28;19928;-53
2022/12/14 09:04:06;;;;;;;;;;;-1.90;99.90;;;;;;5088049;28;19924;-53
2022/12/14 09:06:34;;;;;;;;;;;-1.90;99.90;;;;;;5068300;28;20043;-52
2022/12/14 09:09:01;;;;;;;;;;;-1.90;99.90;;;;;;5091784;28;19924;-53
2022/12/14 09:11:29;;;;;;;;;;;-1.90;99.90;;;;;;5087003;28;20395;-52
2022/12/14 09:13:56;;;;;;;;;;;-1.90;99.90;;;;;;5096502;28;19970;-52
2022/12/14 09:16:25;;;;;;;;;;;-1.90;99.90;;;;;;5085694;28;20026;-53
2022/12/14 09:18:51;;;;;;;;;;;-1.90;99.90;;;;;;5089334;28;19924;-52
2022/12/14 09:21:18;;;;;;;;;;;-1.80;99.90;;;;;;5072562;28;19923;-53
2022/12/14 09:23:45;;;;;;;;;;;-1.80;99.90;;;;;;5087491;28;19963;-53
2022/12/14 09:26:12;;;;;;;;;;;-1.80;99.90;;;;;;5089368;28;19924;-53
2022/12/14 09:28:41;;;;;;;;;;;-1.80;99.90;;;;;;5090703;28;20035;-52
2022/12/14 09:31:10;;;;;;;;;;;-1.80;99.90;;;;;;5090553;28;20383;-53
2022/12/14 09:33:37;;;;;;;;;;;-1.80;99.90;;;;;;5093527;28;19925;-52
2022/12/14 09:36:05;;;;;;;;;;;-1.80;99.90;;;;;;5069514;28;19923;-53
2022/12/14 09:38:33;;;;;;;;;;;-1.80;99.90;;;;;;5089118;28;20348;-53
2022/12/14 09:41:01;;;;;;;;;;;-1.80;99.90;;;;;;5091376;28;19935;-52
2022/12/14 09:43:38;;;;;;;;;;;-1.80;99.90;;;;;;5090656;28;19932;-52
2022/12/14 09:46:15;;;;;;;;;;;-1.80;99.90;;;;;;5085401;28;19924;-52
2022/12/14 09:48:42;;;;;;;;;;;-1.80;99.90;;;;;;5090501;28;19924;-53
2022/12/14 09:51:13;;;;;;;;;;;-1.80;99.90;;;;;;5089147;28;20033;-52
2022/12/14 09:53:40;;;;;;;;;;;-1.80;99.90;;;;;;5087549;28;19928;-52
2022/12/14 09:56:08;;;;;;;;;;;-1.80;99.90;;;;;;5081363;28;20286;-53
2022/12/14 09:58:36;;;;;;;;;;;-1.80;99.90;;;;;;5086701;28;20478;-52
2022/12/14 10:01:21;;;;;;;;;;;-1.70;99.90;;;;;;5087966;28;19997;-52
2022/12/14 10:03:56;;;;;;;;;;;-1.70;99.90;;;;;;5086720;28;19935;-51
2022/12/14 10:06:28;;;;;;;;;;;-1.70;99.90;;;;;;5086731;28;19928;-53
2022/12/14 10:09:01;;;;;;;;;;;-1.70;99.90;;;;;;5089882;28;19924;-53
2022/12/14 10:11:32;;;;;;;;;;;-1.70;99.90;;;;;;5090220;28;19935;-52
2022/12/14 10:14:04;;;;;;;;;;;-1.70;99.90;;;;;;5085132;28;19989;-53
2022/12/14 10:16:35;;;;;;;;;;;-1.70;99.90;;;;;;5091720;28;19931;-53
2022/12/14 10:19:16;;;;;;;;;;;-1.70;99.90;;;;;;5091558;28;19946;-53
2022/12/14 10:21:46;;;;;;;;;;;-1.70;99.90;;;;;;5085879;28;19924;-53
2022/12/14 10:24:16;;;;;;;;;;;-1.70;99.90;;;;;;5090245;28;19924;-53
2022/12/14 10:26:45;;;;;;;;;;;-1.70;99.90;;;;;;5088999;28;19928;-53
2022/12/14 10:29:14;;;;;;;;;;;-1.70;99.90;;;;;;5090220;28;19967;-53
2022/12/14 10:31:44;;;;;;;;;;;-1.60;99.90;;;;;;5070143;28;19955;-53
2022/12/14 10:34:16;;;;;;;;;;;-1.70;99.90;;;;;;5091805;28;19928;-53
2022/12/14 10:36:47;;;;;;;;;;;-1.70;99.90;;;;;;5093261;28;19928;-53
2022/12/14 10:39:20;;;;;;;;;;;-1.70;99.90;;;;;;5091148;28;19924;-53
2022/12/14 10:41:52;;;;;;;;;;;-1.60;99.90;;;;;;5078573;28;19924;-53
2022/12/14 10:44:22;;;;;;;;;;;-1.60;99.90;;;;;;5081064;28;19932;-53
2022/12/14 10:46:51;;;;;;;;;;;-1.60;99.90;;;;;;5091090;28;19932;-55
2022/12/14 10:49:22;;;;;;;;;;;-1.60;99.90;;;;;;5095813;28;20699;-55
2022/12/14 10:51:50;;;;;;;;;;;-1.60;99.90;;;;;;5090093;28;19924;-55
2022/12/14 10:54:22;;;;;;;;;;;-1.60;99.90;;;;;;5091535;28;19997;-55
2022/12/14 10:56:49;;;;;;;;;;;-1.60;99.90;;;;;;5093791;28;19924;-55
2022/12/14 10:59:21;;;;;;;;;;;-1.60;99.90;;;;;;5087966;28;20395;-55
2022/12/14 11:01:49;;;;;;;;;;;-1.60;99.90;;;;;;5087565;28;20318;-55
2022/12/14 11:04:24;;;;;;;;;;;-1.60;99.90;;;;;;5091334;28;19931;-55
2022/12/14 11:06:52;;;;;;;;;;;-1.60;99.90;;;;;;5086990;28;19969;-56
2022/12/14 11:09:20;;;;;;;;;;;-1.50;99.90;;;;;;5088885;28;19936;-55
2022/12/14 11:11:47;;;;;;;;;;;-1.50;99.90;;;;;;5070661;28;20024;-55
2022/12/14 11:14:15;;;;;;;;;;;-1.50;99.90;;;;;;5103542;28;20011;-55
2022/12/14 11:16:41;;;;;;;;;;;-1.50;99.90;;;;;;5091768;28;19955;-55
2022/12/14 11:19:15;;;;;;;;;;;-1.50;99.90;;;;;;5091595;28;20040;-55
2022/12/14 11:21:42;;;;;;;;;;;-1.50;99.90;;;;;;5091433;28;20822;-54
2022/12/14 11:24:20;;;;;;;;;;;-1.50;99.90;;;;;;5090159;28;20312;-55
2022/12/14 11:26:47;;;;;;;;;;;-1.50;99.90;;;;;;5085827;28;20467;-55
2022/12/14 11:29:17;;;;;;;;;;;-1.50;99.90;;;;;;5072622;28;20561;-54
2022/12/14 11:31:44;;;;;;;;;;;-1.40;99.90;;;;;;5090164;28;19966;-54
2022/12/14 11:34:20;;;;;;;;;;;-1.40;99.90;;;;;;5091971;28;19927;-55
2022/12/14 11:36:47;;;;;;;;;;;-1.40;99.90;;;;;;5097301;28;20011;-55
2022/12/14 11:39:21;;;;;;;;;;;-1.40;99.90;;;;;;5089847;28;19935;-55
2022/12/14 11:41:49;;;;;;;;;;;-1.40;99.90;;;;;;5087165;28;19932;-54
2022/12/14 11:44:23;;;;;;;;;;;-1.40;99.90;;;;;;5087413;28;19951;-54
2022/12/14 11:46:52;;;;;;;;;;;-1.40;99.90;;;;;;5072382;28;19934;-56
2022/12/14 11:49:24;;;;;;;;;;;-1.30;99.90;;;;;;5085428;28;19967;-53
2022/12/14 11:51:58;;;;;;;;;;;-1.30;99.90;;;;;;5092571;28;19939;-53
2022/12/14 11:54:26;;;;;;;;;;;-1.30;99.90;;;;;;5089287;28;19924;-53
2022/12/14 11:56:57;;;;;;;;;;;-1.30;99.90;;;;;;5089599;28;19928;-53
2022/12/14 11:59:25;;;;;;;;;;;-1.30;99.90;;;;;;5085556;28;19938;-53
2022/12/14 12:01:54;;;;;;;;;;;-1.30;99.90;;;;;;5084136;28;19951;-53
2022/12/14 12:04:21;;;;;;;;;;;-1.30;99.90;;;;;;5087328;28;19928;-52
2022/12/14 12:06:48;;;;;;;;;;;-1.20;99.90;;;;;;5092475;28;19956;-53
2022/12/14 12:09:20;;;;;;;;;;;-1.20;99.90;;;;;;5091969;28;19932;-52
2022/12/14 12:11:49;;;;;;;;;;;-1.20;99.90;;;;;;5088344;28;21337;-57
2022/12/14 12:14:22;;;;;;;;;;;-1.20;99.90;;;;;;5086381;28;19947;-53
2022/12/14 12:16:51;;;;;;;;;;;-1.20;99.90;;;;;;5080904;28;19984;-53
2022/12/14 12:19:20;;;;;;;;;;;-1.20;99.90;;;;;;5085026;28;19924;-53
2022/12/14 12:21:47;;;;;;;;;;;-1.20;99.90;;;;;;5081138;28;19924;-53
2022/12/14 12:24:16;;;;;;;;;;;-1.20;99.90;;;;;;5081447;28;19938;-53
2022/12/14 12:26:46;;;;;;;;;;;-1.20;99.90;;;;;;5082683;28;19932;-53
2022/12/14 12:29:15;;;;;;;;;;;-1.20;99.90;;;;;;5082620;28;19947;-54
2022/12/14 12:31:45;;;;;;;;;;;-1.20;99.90;;;;;;5077863;28;20462;-54
2022/12/14 12:34:14;;;;;;;;;;;-1.20;99.90;;;;;;5087685;28;20499;-55
2022/12/14 12:36:41;;;;;;;;;;;-1.20;99.90;;;;;;5081373;28;19928;-55
2022/12/14 12:39:11;;;;;;;;;;;-1.20;99.90;;;;;;5087821;28;19932;-54
2022/12/14 12:41:46;;;;;;;;;;;-1.20;99.90;;;;;;5084171;28;19932;-53
2022/12/14 12:44:20;;;;;;;;;;;-1.20;99.90;;;;;;5086313;28;19928;-54
2022/12/14 12:46:53;;;;;;;;;;;-1.10;99.90;;;;;;5082219;28;20378;-55
2022/12/14 12:49:20;;;;;;;;;;;-1.10;99.90;;;;;;5083733;28;19928;-54
2022/12/14 12:51:49;;;;;;;;;;;-1.10;99.90;;;;;;5084442;28;19924;-53
2022/12/14 12:54:18;;;;;;;;;;;-1.10;99.90;;;;;;5087819;28;19928;-52
2022/12/14 12:56:47;;;;;;;;;;;-1.10;99.90;;;;;;5083147;28;21080;-53
2022/12/14 12:59:15;;;;;;;;;;;-1.10;99.90;;;;;;5073551;28;19932;-53
2022/12/14 13:01:45;;;;;;;;;;;-1.10;99.90;;;;;;5089413;28;20014;-53
2022/12/14 13:04:20;;;;;;;;;;;-1.10;99.90;;;;;;5084160;28;20026;-53
2022/12/14 13:06:50;;;;;;;;;;;-1.00;99.90;;;;;;5089711;28;19924;-53
2022/12/14 13:09:19;;;;;;;;;;;-1.00;99.90;;;;;;5078376;28;19924;-53
2022/12/14 13:11:46;;;;;;;;;;;-1.00;99.90;;;;;;5088911;28;20375;-53
2022/12/14 13:14:17;;;;;;;;;;;-1.00;99.90;;;;;;5087674;28;19923;-53
2022/12/14 13:16:46;;;;;;;;;;;-1.00;99.90;;;;;;5085224;28;20020;-53
2022/12/14 13:19:16;;;;;;;;;;;-1.00;99.90;;;;;;5085683;28;20023;-53
2022/12/14 13:21:46;;;;;;;;;;;-1.00;99.90;;;;;;5091845;28;19931;-57
2022/12/14 13:24:16;;;;;;;;;;;-0.90;99.90;;;;;;5087052;28;20016;-57
2022/12/14 13:26:53;;;;;;;;;;;-0.90;99.90;;;;;;5069340;28;20015;-56
2022/12/14 13:29:27;;;;;;;;;;;-0.90;99.90;;;;;;5070582;28;19927;-56
2022/12/14 13:32:01;;;;;;;;;;;-0.90;99.90;;;;;;5086902;28;19931;-56
2022/12/14 13:34:33;;;;;;;;;;;-0.90;99.90;;;;;;5082876;28;19964;-56
2022/12/14 13:37:13;;;;;;;;;;;-0.90;99.90;;;;;;5083653;28;19935;-57
2022/12/14 13:39:48;;;;;;;;;;;-0.90;99.90;;;;;;5083933;28;20408;-57
2022/12/14 13:42:18;;;;;;;;;;;-0.90;99.90;;;;;;5081092;28;19925;-56
2022/12/14 13:44:54;;;;;;;;;;;-0.90;99.90;;;;;;5075538;28;19978;-56
2022/12/14 13:47:24;;;;;;;;;;;-0.90;99.90;;;;;;5070279;28;19928;-53
2022/12/14 13:49:52;;;;;;;;;;;-0.90;99.90;;;;;;5080354;28;20531;-53
2022/12/14 13:52:30;;;;;;;;;;;-0.80;99.90;;;;;;5080484;28;19969;-52
2022/12/14 13:54:57;;;;;;;;;;;-0.80;99.90;;;;;;5073085;28;19932;-53
2022/12/14 13:57:24;;;;;;;;;;;-0.70;99.90;;;;;;5070684;28;20498;-54
2022/12/14 13:59:52;;;;;;;;;;;-0.70;99.90;;;;;;5046798;28;20061;-54
2022/12/14 14:02:40;;;;;;;;;;;-0.70;99.90;;;;;;5084763;28;20280;-54
2022/12/14 14:05:31;;;;;;;;;;;-0.70;99.90;;;;;;5084332;28;20014;-53
2022/12/14 14:08:00;;;;;;;;;;;-0.70;99.90;;;;;;5069906;28;19947;-54
2022/12/14 14:10:30;;;;;;;;;;;-0.70;99.90;;;;;;5084607;28;20012;-54
2022/12/14 14:12:58;;;;;;;;;;;-0.70;99.90;;;;;;5085084;28;19970;-53
2022/12/14 14:15:30;;;;;;;;;;;-0.70;99.90;;;;;;5084938;28;20468;-54
2022/12/14 14:18:05;;;;;;;;;;;-0.70;99.90;;;;;;5084201;28;19934;-54
2022/12/14 14:20:37;;;;;;;;;;;-0.70;99.90;;;;;;5090614;28;20440;-54
2022/12/14 14:23:23;;;;;;;;;;;-0.70;99.90;;;;;;5089525;28;20392;-54
2022/12/14 14:25:51;;;;;;;;;;;-0.70;99.90;;;;;;5089787;28;19966;-54
2022/12/14 14:28:19;;;;;;;;;;;-0.70;99.90;;;;;;5088218;28;20383;-54
2022/12/14 14:30:50;;;;;;;;;;;-0.60;99.90;;;;;;5088250;28;19931;-53
2022/12/14 14:33:29;;;;;;;;;;;-0.60;99.90;;;;;;5090699;28;19939;-54
2022/12/14 14:36:06;;;;;;;;;;;-0.60;99.90;;;;;;5085152;28;20453;-54
2022/12/14 14:38:36;;;;;;;;;;;-0.60;99.90;;;;;;5086136;28;20367;-54